createdAt,value
2019-01-11T00:00:41.483Z,1.36
2019-01-11T00:03:09.949Z,1.45
2019-01-11T00:05:38.483Z,1.35
2019-01-11T00:08:07.290Z,1.45
2019-01-11T00:10:35.765Z,1.39
2019-01-11T00:13:04.305Z,1.41
2019-01-11T00:15:33.235Z,1.43
2019-01-11T00:18:01.702Z,1.50
2019-01-11T00:20:30.227Z,1.32
2019-01-11T00:22:58.677Z,1.25
2019-01-11T00:25:27.130Z,1.38
2019-01-11T00:27:55.570Z,1.41
2019-01-11T00:30:24.027Z,1.51
2019-01-11T00:32:52.489Z,1.48
2019-01-11T00:35:20.965Z,1.47
2019-01-11T00:37:49.393Z,1.46
2019-01-11T00:40:18.067Z,1.46
2019-01-11T00:42:46.529Z,1.41
2019-01-11T00:45:15.318Z,1.39
2019-01-11T00:47:43.859Z,1.49
2019-01-11T00:50:12.537Z,1.46
2019-01-11T00:52:41.001Z,1.46
2019-01-11T00:55:09.977Z,1.32
2019-01-11T00:57:38.431Z,1.34
2019-01-11T01:00:16.087Z,1.38
2019-01-11T01:02:44.529Z,1.39
2019-01-11T01:05:13.192Z,1.30
2019-01-11T01:07:41.664Z,1.36
2019-01-11T01:10:10.349Z,1.40
2019-01-11T01:12:38.827Z,1.45
2019-01-11T01:15:10.529Z,1.34
2019-01-11T01:17:38.973Z,1.36
2019-01-11T01:20:15.034Z,1.46
2019-01-11T01:22:43.655Z,1.38
2019-01-11T01:25:12.538Z,1.36
2019-01-11T01:27:41.265Z,1.41
2019-01-11T01:30:15.859Z,1.51
2019-01-11T01:32:44.301Z,1.55
2019-01-11T01:35:12.929Z,1.54
2019-01-11T01:37:41.369Z,1.41
2019-01-11T01:40:15.315Z,1.46
2019-01-11T01:42:43.754Z,1.39
2019-01-11T01:45:18.062Z,1.33
2019-01-11T01:47:46.493Z,1.32
2019-01-11T01:50:15.425Z,1.42
2019-01-11T01:52:43.921Z,1.41
2019-01-11T01:55:14.389Z,1.45
2019-01-11T01:57:42.982Z,1.51
2019-01-11T02:00:19.285Z,1.43
2019-01-11T02:02:48.881Z,1.37
2019-01-11T02:05:17.671Z,1.29
2019-01-11T02:07:46.312Z,1.39
2019-01-11T02:10:15.336Z,1.32
2019-01-11T02:12:43.787Z,1.31
2019-01-11T02:15:13.064Z,1.43
2019-01-11T02:17:41.680Z,1.40
2019-01-11T02:20:15.350Z,1.45
2019-01-11T02:22:44.158Z,1.45
2019-01-11T02:25:13.236Z,1.36
2019-01-11T02:27:41.861Z,1.38
2019-01-11T02:30:16.025Z,1.45
2019-01-11T02:32:52.112Z,1.33
2019-01-11T02:35:14.649Z,1.30
2019-01-11T02:37:43.116Z,1.35
2019-01-11T02:40:13.142Z,1.43
2019-01-11T02:42:41.575Z,1.42
2019-01-11T02:45:18.850Z,1.44
2019-01-11T02:47:47.368Z,1.43
2019-01-11T02:50:16.410Z,1.42
2019-01-11T02:52:45.286Z,1.40
2019-01-11T02:55:13.832Z,1.50
2019-01-11T02:57:42.258Z,1.39
2019-01-11T03:00:16.442Z,1.46
2019-01-11T03:02:44.956Z,1.53
2019-01-11T03:05:14.471Z,1.41
2019-01-11T03:07:43.088Z,1.51
2019-01-11T03:10:14.833Z,1.44
2019-01-11T03:12:43.297Z,1.45
2019-01-11T03:15:12.526Z,1.40
2019-01-11T03:17:40.964Z,1.29
2019-01-11T03:20:12.049Z,1.36
2019-01-11T03:22:40.492Z,1.32
2019-01-11T03:25:11.170Z,1.37
2019-01-11T03:27:39.629Z,1.46
2019-01-11T03:30:11.613Z,1.57
2019-01-11T03:32:40.066Z,1.47
2019-01-11T03:35:10.226Z,1.52
2019-01-11T03:37:38.693Z,1.51
2019-01-11T03:40:10.330Z,1.68
2019-01-11T03:42:38.797Z,1.63
2019-01-11T03:45:10.326Z,1.65
2019-01-11T03:47:38.794Z,1.62
2019-01-11T03:50:10.065Z,1.46
2019-01-11T03:52:38.524Z,1.39
2019-01-11T03:55:09.813Z,1.42
2019-01-11T03:57:38.378Z,1.46
2019-01-11T04:00:10.216Z,1.42
2019-01-11T04:02:38.681Z,1.59
2019-01-11T04:05:08.965Z,1.47
2019-01-11T04:07:37.497Z,1.50
2019-01-11T04:10:08.987Z,1.49
2019-01-11T04:12:37.452Z,1.47
2019-01-11T04:15:08.844Z,1.53
2019-01-11T04:17:37.333Z,1.46
2019-01-11T04:20:08.831Z,1.32
2019-01-11T04:22:37.875Z,1.32
2019-01-11T04:25:07.253Z,1.37
2019-01-11T04:27:35.736Z,1.35
2019-01-11T04:30:06.973Z,1.39
2019-01-11T04:32:35.429Z,1.55
2019-01-11T04:35:04.181Z,1.61
2019-01-11T04:37:32.601Z,1.54
2019-01-11T04:40:01.070Z,1.52
2019-01-11T04:42:29.509Z,1.45
2019-01-11T04:44:57.972Z,1.47
2019-01-11T04:47:26.429Z,1.43
2019-01-11T04:49:54.889Z,1.41
2019-01-11T04:52:23.349Z,1.41
2019-01-11T04:54:51.816Z,1.46
2019-01-11T04:57:20.262Z,1.54
2019-01-11T04:59:48.728Z,1.58
2019-01-11T05:02:17.189Z,1.47
2019-01-11T05:04:45.645Z,1.43
2019-01-11T05:07:14.163Z,1.43
2019-01-11T05:09:42.614Z,1.36
2019-01-11T05:12:11.055Z,1.35
2019-01-11T05:14:39.523Z,1.37
2019-01-11T05:17:07.974Z,1.52
2019-01-11T05:19:36.436Z,1.46
2019-01-11T05:22:05.092Z,1.44
2019-01-11T05:24:33.533Z,1.38
2019-01-11T05:27:01.992Z,1.42
2019-01-11T05:29:30.481Z,1.46
2019-01-11T05:31:59.103Z,1.57
2019-01-11T05:34:27.556Z,1.54
2019-01-11T05:36:56.016Z,1.50
2019-01-11T05:39:24.460Z,1.55
2019-01-11T05:41:52.918Z,1.56
2019-01-11T05:44:21.367Z,1.51
2019-01-11T05:46:49.831Z,1.36
2019-01-11T05:49:18.286Z,1.47
2019-01-11T05:51:46.771Z,1.33
2019-01-11T05:54:15.213Z,1.38
2019-01-11T05:56:43.685Z,1.53
2019-01-11T05:59:12.124Z,1.56
2019-01-11T06:01:40.608Z,1.44
2019-01-11T06:04:10.727Z,1.43
2019-01-11T06:06:40.815Z,1.51
2019-01-11T06:09:09.286Z,1.41
2019-01-11T06:11:37.760Z,1.42
2019-01-11T06:14:06.208Z,1.51
2019-01-11T06:16:34.700Z,1.54
2019-01-11T06:19:03.128Z,1.48
2019-01-11T06:21:31.584Z,1.59
2019-01-11T06:24:00.051Z,1.49
2019-01-11T06:26:28.510Z,1.51
2019-01-11T06:28:56.963Z,1.57
2019-01-11T06:31:25.403Z,1.56
2019-01-11T06:33:53.870Z,1.46
2019-01-11T06:36:22.347Z,1.45
2019-01-11T06:38:50.874Z,1.45
2019-01-11T06:41:19.328Z,1.54
2019-01-11T06:43:49.426Z,1.55
2019-01-11T06:46:17.943Z,1.38
2019-01-11T06:48:46.404Z,1.52
2019-01-11T06:51:14.844Z,1.46
2019-01-11T06:53:43.316Z,1.45
2019-01-11T06:56:11.755Z,1.41
2019-01-11T06:58:40.228Z,1.33
2019-01-11T07:01:08.675Z,1.45
2019-01-11T07:03:37.156Z,1.44
2019-01-11T07:06:05.615Z,1.40
2019-01-11T07:08:34.105Z,1.54
2019-01-11T07:11:02.592Z,1.63
2019-01-11T07:13:31.060Z,1.47
2019-01-11T07:15:59.515Z,1.38
2019-01-11T07:18:27.965Z,1.52
2019-01-11T07:20:56.434Z,1.40
2019-01-11T07:23:24.920Z,1.30
2019-01-11T07:25:53.395Z,1.47
2019-01-11T07:28:23.375Z,1.51
2019-01-11T07:30:53.478Z,1.41
2019-01-11T07:33:23.307Z,1.35
2019-01-11T07:35:52.838Z,1.53
2019-01-11T07:38:21.276Z,1.55
2019-01-11T07:40:49.737Z,1.39
2019-01-11T07:43:18.175Z,1.46
2019-01-11T07:45:46.634Z,1.39
2019-01-11T07:48:15.079Z,1.60
2019-01-11T07:50:49.184Z,1.56
2019-01-11T07:53:13.750Z,1.52
2019-01-11T07:55:42.209Z,1.68
2019-01-11T07:58:10.660Z,1.61
2019-01-11T08:00:39.123Z,1.64
2019-01-11T08:03:07.573Z,1.64
2019-01-11T08:05:36.041Z,1.68
2019-01-11T08:08:04.989Z,1.58
2019-01-11T08:10:33.451Z,1.54
2019-01-11T08:13:01.909Z,1.61
2019-01-11T08:15:30.357Z,1.57
2019-01-11T08:17:58.845Z,1.68
2019-01-11T08:20:27.285Z,1.77
2019-01-11T08:22:55.753Z,1.59
2019-01-11T08:25:24.189Z,1.62
2019-01-11T08:27:52.715Z,1.53
2019-01-11T08:30:21.164Z,1.66
2019-01-11T08:32:49.647Z,1.71
2019-01-11T08:35:18.088Z,1.82
2019-01-11T08:37:47.064Z,1.77
2019-01-11T08:40:15.476Z,1.87
2019-01-11T08:42:44.136Z,1.83
2019-01-11T08:45:13.941Z,1.84
2019-01-11T08:47:42.498Z,1.82
2019-01-11T08:50:17.069Z,1.80
2019-01-11T08:52:45.693Z,1.83
2019-01-11T08:55:14.318Z,1.85
2019-01-11T08:57:42.929Z,1.78
2019-01-11T09:00:15.481Z,1.79
2019-01-11T09:02:43.953Z,1.85
2019-01-11T09:05:12.456Z,1.88
2019-01-11T09:07:40.936Z,1.87
2019-01-11T09:10:12.461Z,1.78
2019-01-11T09:12:40.911Z,1.86
2019-01-11T09:15:09.812Z,1.77
2019-01-11T09:17:40.006Z,1.86
2019-01-11T09:20:08.738Z,1.84
2019-01-11T09:22:37.177Z,1.91
2019-01-11T09:25:06.210Z,1.86
2019-01-11T09:27:34.658Z,1.98
2019-01-11T09:30:03.430Z,1.92
2019-01-11T09:32:31.886Z,1.84
2019-01-11T09:35:00.383Z,1.88
2019-01-11T09:37:28.818Z,1.99
2019-01-11T09:39:57.342Z,2.01
2019-01-11T09:42:25.740Z,2.00
2019-01-11T09:44:55.093Z,1.91
2019-01-11T09:47:23.547Z,2.05
2019-01-11T09:49:52.195Z,2.06
2019-01-11T09:52:20.648Z,2.02
2019-01-11T09:54:49.114Z,2.07
2019-01-11T09:57:17.584Z,2.15
2019-01-11T09:59:46.056Z,2.03
2019-01-11T10:02:16.178Z,2.11
2019-01-11T10:04:44.720Z,2.17
2019-01-11T10:07:17.526Z,2.13
2019-01-11T10:09:45.982Z,2.04
2019-01-11T10:12:14.434Z,2.05
2019-01-11T10:14:42.927Z,2.03
2019-01-11T10:17:11.395Z,2.01
2019-01-11T10:19:39.834Z,2.12
2019-01-11T10:22:08.326Z,2.10
2019-01-11T10:24:36.785Z,2.14
2019-01-11T10:27:05.234Z,2.16
2019-01-11T10:29:33.694Z,2.22
2019-01-11T10:32:02.179Z,2.28
2019-01-11T10:34:30.635Z,2.05
2019-01-11T10:36:59.116Z,2.17
2019-01-11T10:39:27.557Z,2.19
2019-01-11T10:41:56.107Z,2.26
2019-01-11T10:44:24.585Z,2.13
2019-01-11T10:46:53.048Z,2.25
2019-01-11T10:49:21.641Z,2.33
2019-01-11T10:51:50.106Z,2.25
2019-01-11T10:54:25.995Z,2.25
2019-01-11T10:56:54.477Z,2.38
2019-01-11T10:59:22.907Z,2.40
2019-01-11T11:01:51.375Z,2.46
2019-01-11T11:04:19.835Z,2.55
2019-01-11T11:06:48.291Z,2.59
2019-01-11T11:09:16.748Z,2.54
2019-01-11T11:11:45.341Z,2.47
2019-01-11T11:14:13.863Z,2.52
2019-01-11T11:16:42.356Z,2.59
2019-01-11T11:19:10.794Z,2.65
2019-01-11T11:21:39.267Z,2.61
2019-01-11T11:24:07.699Z,2.63
2019-01-11T11:26:36.194Z,2.68
2019-01-11T11:29:04.874Z,2.58
2019-01-11T11:31:33.356Z,2.73
2019-01-11T11:34:01.809Z,2.73
2019-01-11T11:36:30.259Z,2.76
2019-01-11T11:38:58.721Z,2.78
2019-01-11T11:41:27.242Z,2.68
2019-01-11T11:43:55.744Z,2.79
2019-01-11T11:46:24.167Z,2.82
2019-01-11T11:48:52.656Z,2.77
2019-01-11T11:51:21.115Z,2.93
2019-01-11T11:53:49.579Z,2.84
2019-01-11T11:56:18.026Z,2.95
2019-01-11T11:58:46.517Z,3.00
2019-01-11T12:01:14.973Z,2.92
2019-01-11T12:03:43.461Z,2.97
2019-01-11T12:06:11.967Z,2.95
2019-01-11T12:08:40.391Z,3.03
2019-01-11T12:11:08.845Z,3.02
2019-01-11T12:13:37.316Z,3.08
2019-01-11T12:16:05.756Z,3.03
2019-01-11T12:18:34.235Z,3.12
2019-01-11T12:21:02.776Z,3.12
2019-01-11T12:23:31.275Z,3.10
2019-01-11T12:25:59.992Z,3.09
2019-01-11T12:28:28.473Z,3.10
2019-01-11T12:30:56.932Z,3.16
2019-01-11T12:33:25.357Z,3.28
2019-01-11T12:35:53.831Z,3.36
2019-01-11T12:38:22.273Z,3.33
2019-01-11T12:40:50.734Z,3.28
2019-01-11T12:43:19.176Z,3.22
2019-01-11T12:45:47.639Z,3.32
2019-01-11T12:48:16.110Z,3.32
2019-01-11T12:50:44.648Z,3.37
2019-01-11T12:53:13.017Z,3.36
2019-01-11T12:55:41.481Z,3.45
2019-01-11T12:58:09.928Z,3.47
2019-01-11T13:00:38.383Z,3.42
2019-01-11T13:03:06.882Z,3.46
2019-01-11T13:05:35.350Z,3.49
2019-01-11T13:08:03.801Z,3.58
2019-01-11T13:10:32.283Z,3.50
2019-01-11T13:13:00.738Z,3.65
2019-01-11T13:15:29.190Z,3.72
2019-01-11T13:17:57.672Z,3.72
2019-01-11T13:20:26.120Z,3.70
2019-01-11T13:22:54.648Z,3.74
2019-01-11T13:25:23.131Z,3.78
2019-01-11T13:27:51.612Z,3.78
2019-01-11T13:30:20.610Z,3.66
2019-01-11T13:32:49.241Z,3.79
2019-01-11T13:35:17.705Z,3.71
2019-01-11T13:37:46.176Z,3.77
2019-01-11T13:40:17.503Z,3.88
2019-01-11T13:42:45.981Z,3.87
2019-01-11T13:45:15.066Z,3.93
2019-01-11T13:47:43.643Z,3.94
2019-01-11T13:50:15.158Z,4.00
2019-01-11T13:52:43.606Z,4.03
2019-01-11T13:55:12.066Z,4.08
2019-01-11T13:57:40.569Z,4.08
2019-01-11T14:00:14.758Z,4.02
2019-01-11T14:02:43.228Z,4.13
2019-01-11T14:05:11.671Z,4.08
2019-01-11T14:07:40.128Z,4.18
2019-01-11T14:10:08.587Z,4.16
2019-01-11T14:12:37.057Z,4.23
2019-01-11T14:15:08.147Z,4.19
2019-01-11T14:17:37.433Z,4.11
2019-01-11T14:20:08.845Z,4.14
2019-01-11T14:22:37.289Z,4.27
2019-01-11T14:25:08.283Z,4.24
2019-01-11T14:27:36.745Z,4.19
2019-01-11T14:30:14.134Z,4.21
2019-01-11T14:32:42.707Z,4.27
2019-01-11T14:35:11.306Z,4.27
2019-01-11T14:37:39.774Z,4.25
2019-01-11T14:40:13.907Z,4.30
2019-01-11T14:42:42.366Z,4.25
2019-01-11T14:45:13.568Z,4.23
2019-01-11T14:47:42.026Z,4.25
2019-01-11T14:50:15.526Z,4.23
2019-01-11T14:52:43.992Z,4.35
2019-01-11T14:55:12.459Z,4.33
2019-01-11T14:57:40.921Z,4.34
2019-01-11T15:00:18.141Z,4.36
2019-01-11T15:02:46.665Z,4.38
2019-01-11T15:05:16.740Z,4.39
2019-01-11T15:07:45.329Z,4.39
2019-01-11T15:10:15.668Z,4.42
2019-01-11T15:12:45.491Z,4.42
2019-01-11T15:15:13.965Z,4.52
2019-01-11T15:17:42.438Z,4.53
2019-01-11T15:20:15.858Z,4.56
2019-01-11T15:22:44.853Z,4.54
2019-01-11T15:25:13.464Z,4.57
2019-01-11T15:27:41.941Z,4.52
2019-01-11T15:30:15.854Z,4.60
2019-01-11T15:32:44.310Z,4.62
2019-01-11T15:35:13.031Z,4.65
2019-01-11T15:37:41.502Z,4.66
2019-01-11T15:40:15.563Z,4.68
2019-01-11T15:42:44.025Z,4.73
2019-01-11T15:45:12.509Z,4.74
2019-01-11T15:47:41.007Z,4.74
2019-01-11T15:50:18.344Z,4.73
2019-01-11T15:52:46.825Z,4.75
2019-01-11T15:55:15.306Z,4.69
2019-01-11T15:57:43.781Z,4.76
2019-01-11T16:00:15.340Z,4.78
2019-01-11T16:02:43.873Z,4.75
2019-01-11T16:05:12.358Z,4.75
2019-01-11T16:07:40.826Z,4.87
2019-01-11T16:10:15.214Z,4.84
2019-01-11T16:12:43.666Z,4.81
2019-01-11T16:15:24.355Z,4.89
2019-01-11T16:17:55.856Z,4.91
2019-01-11T16:20:24.323Z,4.92
2019-01-11T16:22:52.832Z,4.89
2019-01-11T16:25:21.298Z,4.95
2019-01-11T16:27:49.866Z,4.92
2019-01-11T16:30:18.545Z,4.99
2019-01-11T16:32:47.023Z,4.90
2019-01-11T16:35:15.489Z,4.98
2019-01-11T16:37:43.975Z,4.99
2019-01-11T16:40:13.809Z,5.04
2019-01-11T16:42:42.292Z,5.06
2019-01-11T16:45:15.120Z,5.12
2019-01-11T16:47:43.650Z,5.15
2019-01-11T16:50:15.254Z,5.16
2019-01-11T16:52:46.526Z,5.15
2019-01-11T16:55:13.992Z,5.25
2019-01-11T16:57:42.434Z,5.23
2019-01-11T17:00:13.969Z,5.32
2019-01-11T17:02:42.450Z,5.32
2019-01-11T17:05:11.378Z,5.28
2019-01-11T17:07:39.898Z,5.34
2019-01-11T17:10:11.121Z,5.33
2019-01-11T17:12:41.898Z,5.35
2019-01-11T17:15:12.987Z,5.36
2019-01-11T17:17:41.438Z,5.41
2019-01-11T17:20:12.923Z,5.43
2019-01-11T17:22:41.373Z,5.42
2019-01-11T17:25:09.853Z,5.47
2019-01-11T17:27:38.322Z,5.46
2019-01-11T17:30:12.585Z,5.48
2019-01-11T17:32:41.122Z,5.46
2019-01-11T17:35:09.638Z,5.48
2019-01-11T17:37:38.094Z,5.55
2019-01-11T17:40:09.245Z,5.49
2019-01-11T17:42:37.714Z,5.54
2019-01-11T17:45:08.918Z,5.55
2019-01-11T17:47:37.383Z,5.52
2019-01-11T17:50:09.149Z,5.59
2019-01-11T17:52:37.597Z,5.60
2019-01-11T17:55:06.939Z,5.60
2019-01-11T17:57:35.386Z,5.58
2019-01-11T18:00:06.968Z,5.61
2019-01-11T18:02:35.418Z,5.64
2019-01-11T18:05:05.174Z,5.61
2019-01-11T18:07:33.649Z,5.63
2019-01-11T18:10:02.130Z,5.69
2019-01-11T18:12:30.729Z,5.74
2019-01-11T18:14:59.180Z,5.77
2019-01-11T18:17:27.683Z,5.78
2019-01-11T18:19:56.118Z,5.83
2019-01-11T18:22:24.621Z,5.78
2019-01-11T18:24:53.081Z,5.80
2019-01-11T18:27:21.553Z,5.81
2019-01-11T18:29:49.996Z,5.86
2019-01-11T18:32:18.524Z,5.83
2019-01-11T18:34:46.979Z,5.85
2019-01-11T18:37:15.439Z,5.86
2019-01-11T18:39:43.905Z,5.84
2019-01-11T18:42:12.389Z,5.88
2019-01-11T18:44:40.847Z,5.80
2019-01-11T18:47:09.326Z,5.82
2019-01-11T18:49:37.774Z,5.85
2019-01-11T18:52:06.266Z,5.82
2019-01-11T18:54:34.704Z,5.87
2019-01-11T18:57:03.177Z,5.94
2019-01-11T18:59:32.322Z,5.91
2019-01-11T19:02:00.860Z,5.83
2019-01-11T19:04:29.374Z,5.90
2019-01-11T19:06:57.822Z,5.94
2019-01-11T19:09:26.263Z,5.95
2019-01-11T19:11:54.827Z,5.98
2019-01-11T19:14:23.287Z,5.94
2019-01-11T19:16:51.759Z,5.99
2019-01-11T19:19:20.238Z,5.93
2019-01-11T19:21:51.645Z,6.04
2019-01-11T19:24:20.238Z,5.99
2019-01-11T19:26:48.683Z,6.00
2019-01-11T19:29:17.160Z,6.01
2019-01-11T19:31:45.614Z,6.03
2019-01-11T19:34:14.097Z,6.07
2019-01-11T19:36:42.592Z,6.02
2019-01-11T19:39:11.057Z,6.02
2019-01-11T19:41:39.558Z,6.08
2019-01-11T19:44:08.071Z,6.09
2019-01-11T19:46:36.540Z,6.19
2019-01-11T19:49:05.376Z,6.05
2019-01-11T19:51:33.842Z,6.11
2019-01-11T19:54:02.319Z,6.10
2019-01-11T19:56:30.790Z,6.04
2019-01-11T19:59:00.484Z,6.08
2019-01-11T20:01:29.025Z,6.13
2019-01-11T20:03:57.497Z,6.00
2019-01-11T20:06:27.257Z,6.04
2019-01-11T20:08:55.921Z,6.07
2019-01-11T20:11:24.448Z,6.05
2019-01-11T20:13:52.959Z,6.03
2019-01-11T20:16:21.458Z,6.06
2019-01-11T20:18:49.961Z,6.05
2019-01-11T20:21:18.429Z,6.00
2019-01-11T20:23:48.464Z,6.02
2019-01-11T20:26:16.932Z,6.01
2019-01-11T20:28:45.407Z,6.03
2019-01-11T20:31:15.022Z,6.01
2019-01-11T20:33:43.543Z,6.01
2019-01-11T20:36:12.237Z,5.90
2019-01-11T20:38:41.065Z,5.96
2019-01-11T20:41:09.546Z,5.95
2019-01-11T20:43:38.020Z,5.97
2019-01-11T20:46:06.508Z,5.99
2019-01-11T20:48:34.962Z,5.92
2019-01-11T20:51:03.442Z,5.97
2019-01-11T20:53:33.613Z,5.97
2019-01-11T20:56:02.102Z,5.91
2019-01-11T20:58:30.585Z,5.97
2019-01-11T21:00:59.495Z,6.00
2019-01-11T21:03:27.957Z,5.95
2019-01-11T21:05:56.429Z,5.91
2019-01-11T21:08:24.904Z,5.96
2019-01-11T21:10:53.365Z,5.92
2019-01-11T21:13:21.845Z,5.94
2019-01-11T21:15:50.416Z,6.01
2019-01-11T21:18:18.917Z,5.95
2019-01-11T21:20:47.402Z,5.95
2019-01-11T21:23:15.877Z,5.98
2019-01-11T21:25:44.379Z,5.98
2019-01-11T21:28:12.837Z,5.94
2019-01-11T21:30:41.292Z,5.94
2019-01-11T21:33:09.831Z,5.92
2019-01-11T21:35:38.321Z,5.91
2019-01-11T21:38:06.809Z,5.91
2019-01-11T21:40:35.293Z,5.89
2019-01-11T21:43:03.783Z,5.88
2019-01-11T21:45:32.249Z,5.88
2019-01-11T21:48:00.724Z,5.91
2019-01-11T21:50:29.318Z,5.93
2019-01-11T21:52:57.864Z,5.92
2019-01-11T21:55:26.657Z,5.88
2019-01-11T21:57:55.154Z,5.90
2019-01-11T22:00:26.499Z,5.94
2019-01-11T22:02:54.979Z,6.01
2019-01-11T22:05:23.456Z,5.87
2019-01-11T22:07:52.017Z,5.86
2019-01-11T22:10:20.477Z,5.92
2019-01-11T22:12:48.944Z,5.90
2019-01-11T22:15:19.085Z,5.89
2019-01-11T22:17:47.560Z,5.89
2019-01-11T22:20:17.573Z,5.88
2019-01-11T22:22:46.141Z,5.83
2019-01-11T22:25:16.604Z,5.86
2019-01-11T22:27:45.333Z,5.87
2019-01-11T22:30:19.786Z,5.86
2019-01-11T22:32:48.242Z,5.89
2019-01-11T22:35:18.741Z,5.87
2019-01-11T22:37:47.390Z,5.85
2019-01-11T22:40:18.255Z,5.87
2019-01-11T22:42:47.561Z,5.85
2019-01-11T22:45:16.098Z,5.81
2019-01-11T22:47:44.573Z,5.83
2019-01-11T22:50:15.162Z,5.85
2019-01-11T22:52:43.625Z,5.87
2019-01-11T22:55:14.711Z,5.83
2019-01-11T22:57:43.263Z,5.80
2019-01-11T23:00:21.956Z,5.77
2019-01-11T23:02:51.583Z,5.75
2019-01-11T23:05:20.029Z,5.75
2019-01-11T23:07:48.496Z,5.73
2019-01-11T23:10:19.979Z,5.70
2019-01-11T23:12:51.387Z,5.74
2019-01-11T23:15:19.992Z,5.74
2019-01-11T23:17:51.510Z,5.72
2019-01-11T23:20:19.948Z,5.72
2019-01-11T23:22:48.429Z,5.72
2019-01-11T23:25:16.894Z,5.64
2019-01-11T23:27:45.363Z,5.57
2019-01-11T23:30:16.462Z,5.64
2019-01-11T23:32:45.160Z,5.59
2019-01-11T23:35:13.789Z,5.58
2019-01-11T23:37:42.252Z,5.58
2019-01-11T23:40:12.490Z,5.48
2019-01-11T23:42:40.949Z,5.51
2019-01-11T23:45:11.536Z,5.46
2019-01-11T23:47:39.980Z,5.54
2019-01-11T23:50:11.780Z,5.50
2019-01-11T23:52:40.223Z,5.50
2019-01-11T23:55:10.113Z,5.50
2019-01-11T23:57:38.574Z,5.42
